sensor_id;sensor_type;location;lat;lon;timestamp;temperature;humidity
11764;DHT22;5939;56.522;14.950;2023-06-24T00:01:26;19.80;95.60
11764;DHT22;5939;56.522;14.950;2023-06-24T00:03:51;19.70;95.60
11764;DHT22;5939;56.522;14.950;2023-06-24T00:06:21;19.70;95.60
11764;DHT22;5939;56.522;14.950;2023-06-24T00:08:48;19.70;95.60
11764;DHT22;5939;56.522;14.950;2023-06-24T00:11:15;19.60;95.60
11764;DHT22;5939;56.522;14.950;2023-06-24T00:13:41;19.60;95.60
11764;DHT22;5939;56.522;14.950;2023-06-24T00:16:08;19.60;95.60
11764;DHT22;5939;56.522;14.950;2023-06-24T00:18:34;19.50;95.60
11764;DHT22;5939;56.522;14.950;2023-06-24T00:21:00;19.50;95.60
11764;DHT22;5939;56.522;14.950;2023-06-24T00:23:27;19.50;95.60
11764;DHT22;5939;56.522;14.950;2023-06-24T00:25:54;19.50;95.70
11764;DHT22;5939;56.522;14.950;2023-06-24T00:28:20;19.40;95.70
11764;DHT22;5939;56.522;14.950;2023-06-24T00:30:47;19.40;95.80
11764;DHT22;5939;56.522;14.950;2023-06-24T00:33:13;19.40;95.80
11764;DHT22;5939;56.522;14.950;2023-06-24T00:35:40;19.30;95.70
11764;DHT22;5939;56.522;14.950;2023-06-24T00:38:05;19.30;95.80
11764;DHT22;5939;56.522;14.950;2023-06-24T00:40:31;19.30;95.80
11764;DHT22;5939;56.522;14.950;2023-06-24T00:42:58;19.30;95.70
11764;DHT22;5939;56.522;14.950;2023-06-24T00:45:24;19.20;95.70
11764;DHT22;5939;56.522;14.950;2023-06-24T00:47:50;19.20;95.80
11764;DHT22;5939;56.522;14.950;2023-06-24T00:50:17;19.20;95.80
11764;DHT22;5939;56.522;14.950;2023-06-24T00:52:43;19.10;95.80
11764;DHT22;5939;56.522;14.950;2023-06-24T00:55:13;19.10;95.70
11764;DHT22;5939;56.522;14.950;2023-06-24T00:58:00;19.10;95.80
11764;DHT22;5939;56.522;14.950;2023-06-24T01:00:26;19.10;95.80
11764;DHT22;5939;56.522;14.950;2023-06-24T01:02:52;19.00;95.70
11764;DHT22;5939;56.522;14.950;2023-06-24T01:05:18;19.00;95.80
11764;DHT22;5939;56.522;14.950;2023-06-24T01:07:49;19.00;95.90
11764;DHT22;5939;56.522;14.950;2023-06-24T01:10:20;19.00;95.90
11764;DHT22;5939;56.522;14.950;2023-06-24T01:12:47;18.90;95.90
11764;DHT22;5939;56.522;14.950;2023-06-24T01:15:13;18.90;95.90
11764;DHT22;5939;56.522;14.950;2023-06-24T01:20:25;18.80;95.90
11764;DHT22;5939;56.522;14.950;2023-06-24T01:26:14;18.80;95.90
11764;DHT22;5939;56.522;14.950;2023-06-24T01:34:56;18.70;96.00
11764;DHT22;5939;56.522;14.950;2023-06-24T01:37:35;18.70;96.30
11764;DHT22;5939;56.522;14.950;2023-06-24T01:42:45;18.60;96.00
11764;DHT22;5939;56.522;14.950;2023-06-24T01:45:33;18.60;96.00
11764;DHT22;5939;56.522;14.950;2023-06-24T01:48:07;18.60;96.10
11764;DHT22;5939;56.522;14.950;2023-06-24T01:50:33;18.50;96.10
11764;DHT22;5939;56.522;14.950;2023-06-24T01:53:06;18.50;96.10
11764;DHT22;5939;56.522;14.950;2023-06-24T01:55:33;18.50;96.10
11764;DHT22;5939;56.522;14.950;2023-06-24T01:58:00;18.50;96.10
11764;DHT22;5939;56.522;14.950;2023-06-24T02:00:27;18.40;96.10
11764;DHT22;5939;56.522;14.950;2023-06-24T02:02:54;18.40;96.20
11764;DHT22;5939;56.522;14.950;2023-06-24T02:05:21;18.40;96.20
11764;DHT22;5939;56.522;14.950;2023-06-24T02:07:48;18.40;96.20
11764;DHT22;5939;56.522;14.950;2023-06-24T02:10:16;18.40;96.20
11764;DHT22;5939;56.522;14.950;2023-06-24T02:12:43;18.30;96.20
11764;DHT22;5939;56.522;14.950;2023-06-24T02:15:09;18.30;96.30
11764;DHT22;5939;56.522;14.950;2023-06-24T02:17:36;18.30;96.20
11764;DHT22;5939;56.522;14.950;2023-06-24T02:20:05;18.20;96.30
11764;DHT22;5939;56.522;14.950;2023-06-24T02:22:35;18.20;96.30
11764;DHT22;5939;56.522;14.950;2023-06-24T02:25:01;18.20;96.30
11764;DHT22;5939;56.522;14.950;2023-06-24T02:27:28;18.20;96.40
11764;DHT22;5939;56.522;14.950;2023-06-24T02:29:55;18.20;96.40
11764;DHT22;5939;56.522;14.950;2023-06-24T02:32:20;18.10;96.40
11764;DHT22;5939;56.522;14.950;2023-06-24T02:34:46;18.10;96.40
11764;DHT22;5939;56.522;14.950;2023-06-24T02:37:12;18.10;96.40
11764;DHT22;5939;56.522;14.950;2023-06-24T02:39:37;18.10;96.40
11764;DHT22;5939;56.522;14.950;2023-06-24T02:42:12;18.00;96.50
11764;DHT22;5939;56.522;14.950;2023-06-24T02:44:39;18.00;96.50
11764;DHT22;5939;56.522;14.950;2023-06-24T02:47:07;18.00;96.50
11764;DHT22;5939;56.522;14.950;2023-06-24T02:49:35;18.00;96.60
11764;DHT22;5939;56.522;14.950;2023-06-24T02:52:02;18.00;96.60
11764;DHT22;5939;56.522;14.950;2023-06-24T02:54:28;18.00;96.60
11764;DHT22;5939;56.522;14.950;2023-06-24T02:56:55;18.00;96.60
11764;DHT22;5939;56.522;14.950;2023-06-24T02:59:23;17.90;96.60
11764;DHT22;5939;56.522;14.950;2023-06-24T03:01:50;17.90;96.60
11764;DHT22;5939;56.522;14.950;2023-06-24T03:04:17;17.90;96.60
11764;DHT22;5939;56.522;14.950;2023-06-24T03:06:44;17.90;96.60
11764;DHT22;5939;56.522;14.950;2023-06-24T03:09:10;17.90;96.70
11764;DHT22;5939;56.522;14.950;2023-06-24T03:11:42;17.80;96.60
11764;DHT22;5939;56.522;14.950;2023-06-24T03:14:09;17.80;96.70
11764;DHT22;5939;56.522;14.950;2023-06-24T03:16:35;17.80;96.70
11764;DHT22;5939;56.522;14.950;2023-06-24T03:19:01;17.80;96.70
11764;DHT22;5939;56.522;14.950;2023-06-24T03:21:27;17.80;96.80
11764;DHT22;5939;56.522;14.950;2023-06-24T03:23:54;17.80;96.80
11764;DHT22;5939;56.522;14.950;2023-06-24T03:26:20;17.70;96.80
11764;DHT22;5939;56.522;14.950;2023-06-24T03:28:46;17.70;96.80
11764;DHT22;5939;56.522;14.950;2023-06-24T03:31:11;17.70;96.80
11764;DHT22;5939;56.522;14.950;2023-06-24T03:33:37;17.70;96.80
11764;DHT22;5939;56.522;14.950;2023-06-24T03:36:03;17.70;96.90
11764;DHT22;5939;56.522;14.950;2023-06-24T03:38:29;17.70;96.90
11764;DHT22;5939;56.522;14.950;2023-06-24T03:40:54;17.70;97.00
11764;DHT22;5939;56.522;14.950;2023-06-24T03:43:20;17.70;97.00
11764;DHT22;5939;56.522;14.950;2023-06-24T03:45:46;17.70;97.00
11764;DHT22;5939;56.522;14.950;2023-06-24T03:48:11;17.60;97.00
11764;DHT22;5939;56.522;14.950;2023-06-24T03:50:37;17.60;97.00
11764;DHT22;5939;56.522;14.950;2023-06-24T03:53:04;17.60;97.00
11764;DHT22;5939;56.522;14.950;2023-06-24T03:55:29;17.60;97.10
11764;DHT22;5939;56.522;14.950;2023-06-24T03:57:55;17.60;97.10
11764;DHT22;5939;56.522;14.950;2023-06-24T04:00:21;17.60;97.10
11764;DHT22;5939;56.522;14.950;2023-06-24T04:02:47;17.60;97.10
11764;DHT22;5939;56.522;14.950;2023-06-24T04:05:13;17.60;97.20
11764;DHT22;5939;56.522;14.950;2023-06-24T04:07:38;17.60;97.20
11764;DHT22;5939;56.522;14.950;2023-06-24T04:10:05;17.60;97.20
11764;DHT22;5939;56.522;14.950;2023-06-24T04:12:35;17.60;97.20
11764;DHT22;5939;56.522;14.950;2023-06-24T04:15:02;17.60;97.20
11764;DHT22;5939;56.522;14.950;2023-06-24T04:17:28;17.50;97.30
11764;DHT22;5939;56.522;14.950;2023-06-24T04:19:54;17.60;97.30
11764;DHT22;5939;56.522;14.950;2023-06-24T04:22:20;17.50;97.60
11764;DHT22;5939;56.522;14.950;2023-06-24T04:24:45;17.50;97.30
11764;DHT22;5939;56.522;14.950;2023-06-24T04:27:11;17.50;97.30
11764;DHT22;5939;56.522;14.950;2023-06-24T04:29:37;17.50;97.30
11764;DHT22;5939;56.522;14.950;2023-06-24T04:32:03;17.50;97.20
11764;DHT22;5939;56.522;14.950;2023-06-24T04:34:28;17.50;97.20
11764;DHT22;5939;56.522;14.950;2023-06-24T04:36:54;17.50;97.20
11764;DHT22;5939;56.522;14.950;2023-06-24T04:39:20;17.50;97.30
11764;DHT22;5939;56.522;14.950;2023-06-24T04:41:46;17.50;97.30
11764;DHT22;5939;56.522;14.950;2023-06-24T04:44:12;17.50;97.30
11764;DHT22;5939;56.522;14.950;2023-06-24T04:46:38;17.50;97.30
11764;DHT22;5939;56.522;14.950;2023-06-24T04:49:05;17.50;97.40
11764;DHT22;5939;56.522;14.950;2023-06-24T04:51:31;17.60;97.40
11764;DHT22;5939;56.522;14.950;2023-06-24T04:53:57;17.60;97.40
11764;DHT22;5939;56.522;14.950;2023-06-24T04:56:23;17.60;97.50
11764;DHT22;5939;56.522;14.950;2023-06-24T04:58:48;17.60;97.50
11764;DHT22;5939;56.522;14.950;2023-06-24T05:01:14;17.60;97.50
11764;DHT22;5939;56.522;14.950;2023-06-24T05:03:40;17.60;97.60
11764;DHT22;5939;56.522;14.950;2023-06-24T05:06:05;17.60;97.50
11764;DHT22;5939;56.522;14.950;2023-06-24T05:08:31;17.60;97.60
11764;DHT22;5939;56.522;14.950;2023-06-24T05:10:56;17.60;97.60
11764;DHT22;5939;56.522;14.950;2023-06-24T05:13:23;17.60;97.60
11764;DHT22;5939;56.522;14.950;2023-06-24T05:15:49;17.70;97.60
11764;DHT22;5939;56.522;14.950;2023-06-24T05:18:15;17.70;97.70
11764;DHT22;5939;56.522;14.950;2023-06-24T05:20:40;17.70;97.70
11764;DHT22;5939;56.522;14.950;2023-06-24T05:23:06;17.70;97.70
11764;DHT22;5939;56.522;14.950;2023-06-24T05:25:32;17.80;97.70
11764;DHT22;5939;56.522;14.950;2023-06-24T05:27:57;17.80;97.80
11764;DHT22;5939;56.522;14.950;2023-06-24T05:30:23;17.80;97.80
11764;DHT22;5939;56.522;14.950;2023-06-24T05:32:49;17.90;97.90
11764;DHT22;5939;56.522;14.950;2023-06-24T05:35:14;17.90;98.00
11764;DHT22;5939;56.522;14.950;2023-06-24T05:37:40;18.00;98.10
11764;DHT22;5939;56.522;14.950;2023-06-24T05:40:06;18.00;98.10
11764;DHT22;5939;56.522;14.950;2023-06-24T05:42:32;18.10;98.00
11764;DHT22;5939;56.522;14.950;2023-06-24T05:44:59;18.10;97.80
11764;DHT22;5939;56.522;14.950;2023-06-24T05:47:24;18.10;97.80
11764;DHT22;5939;56.522;14.950;2023-06-24T05:49:50;18.20;97.80
11764;DHT22;5939;56.522;14.950;2023-06-24T05:52:16;18.20;97.70
11764;DHT22;5939;56.522;14.950;2023-06-24T05:54:41;18.20;97.60
11764;DHT22;5939;56.522;14.950;2023-06-24T05:57:07;18.30;97.60
11764;DHT22;5939;56.522;14.950;2023-06-24T05:59:33;18.30;97.50
11764;DHT22;5939;56.522;14.950;2023-06-24T06:01:59;18.30;97.50
11764;DHT22;5939;56.522;14.950;2023-06-24T06:04:27;18.40;97.50
11764;DHT22;5939;56.522;14.950;2023-06-24T06:06:52;18.40;97.50
11764;DHT22;5939;56.522;14.950;2023-06-24T06:09:18;18.40;97.80
11764;DHT22;5939;56.522;14.950;2023-06-24T06:11:44;18.50;97.50
11764;DHT22;5939;56.522;14.950;2023-06-24T06:14:09;18.50;97.40
11764;DHT22;5939;56.522;14.950;2023-06-24T06:16:35;18.50;97.50
11764;DHT22;5939;56.522;14.950;2023-06-24T06:19:01;18.50;97.50
11764;DHT22;5939;56.522;14.950;2023-06-24T06:21:26;18.60;97.50
11764;DHT22;5939;56.522;14.950;2023-06-24T06:23:52;18.70;97.80
11764;DHT22;5939;56.522;14.950;2023-06-24T06:26:18;18.70;97.70
11764;DHT22;5939;56.522;14.950;2023-06-24T06:28:43;18.70;97.70
11764;DHT22;5939;56.522;14.950;2023-06-24T06:31:09;18.70;97.60
11764;DHT22;5939;56.522;14.950;2023-06-24T06:33:35;18.80;97.80
11764;DHT22;5939;56.522;14.950;2023-06-24T06:36:00;18.80;98.10
11764;DHT22;5939;56.522;14.950;2023-06-24T06:38:26;18.90;97.90
11764;DHT22;5939;56.522;14.950;2023-06-24T06:40:52;19.00;98.10
11764;DHT22;5939;56.522;14.950;2023-06-24T06:43:18;19.00;98.20
11764;DHT22;5939;56.522;14.950;2023-06-24T06:45:43;19.10;98.50
11764;DHT22;5939;56.522;14.950;2023-06-24T06:48:09;19.20;98.50
11764;DHT22;5939;56.522;14.950;2023-06-24T06:50:35;19.20;98.40
11764;DHT22;5939;56.522;14.950;2023-06-24T06:53:00;19.30;98.30
11764;DHT22;5939;56.522;14.950;2023-06-24T06:55:26;19.40;98.30
11764;DHT22;5939;56.522;14.950;2023-06-24T06:57:53;19.40;98.20
11764;DHT22;5939;56.522;14.950;2023-06-24T07:00:19;19.50;98.10
11764;DHT22;5939;56.522;14.950;2023-06-24T07:02:44;19.50;98.10
11764;DHT22;5939;56.522;14.950;2023-06-24T07:05:10;19.60;98.30
11764;DHT22;5939;56.522;14.950;2023-06-24T07:07:39;19.60;98.20
11764;DHT22;5939;56.522;14.950;2023-06-24T07:10:05;19.70;98.10
11764;DHT22;5939;56.522;14.950;2023-06-24T07:12:31;19.80;98.20
11764;DHT22;5939;56.522;14.950;2023-06-24T07:14:57;19.80;98.40
11764;DHT22;5939;56.522;14.950;2023-06-24T07:17:23;19.90;98.40
11764;DHT22;5939;56.522;14.950;2023-06-24T07:19:48;20.00;98.40
11764;DHT22;5939;56.522;14.950;2023-06-24T07:22:14;20.00;98.20
11764;DHT22;5939;56.522;14.950;2023-06-24T07:24:41;20.10;98.20
11764;DHT22;5939;56.522;14.950;2023-06-24T07:27:07;20.20;98.30
11764;DHT22;5939;56.522;14.950;2023-06-24T07:29:33;20.20;98.40
11764;DHT22;5939;56.522;14.950;2023-06-24T07:31:58;20.30;98.40
11764;DHT22;5939;56.522;14.950;2023-06-24T07:34:24;20.40;98.40
11764;DHT22;5939;56.522;14.950;2023-06-24T07:36:49;20.40;98.30
11764;DHT22;5939;56.522;14.950;2023-06-24T07:39:16;20.50;98.30
11764;DHT22;5939;56.522;14.950;2023-06-24T07:41:42;20.60;98.30
11764;DHT22;5939;56.522;14.950;2023-06-24T07:44:08;20.60;98.40
11764;DHT22;5939;56.522;14.950;2023-06-24T07:46:34;20.70;98.30
11764;DHT22;5939;56.522;14.950;2023-06-24T07:49:00;20.80;98.30
11764;DHT22;5939;56.522;14.950;2023-06-24T07:51:26;20.80;98.30
11764;DHT22;5939;56.522;14.950;2023-06-24T07:53:52;20.90;98.30
11764;DHT22;5939;56.522;14.950;2023-06-24T07:56:18;21.00;98.30
11764;DHT22;5939;56.522;14.950;2023-06-24T07:58:44;21.00;98.30
11764;DHT22;5939;56.522;14.950;2023-06-24T08:01:09;21.10;98.20
11764;DHT22;5939;56.522;14.950;2023-06-24T08:03:35;21.10;98.20
11764;DHT22;5939;56.522;14.950;2023-06-24T08:06:02;21.20;98.20
11764;DHT22;5939;56.522;14.950;2023-06-24T08:08:28;21.30;98.20
11764;DHT22;5939;56.522;14.950;2023-06-24T08:10:54;21.30;98.20
11764;DHT22;5939;56.522;14.950;2023-06-24T08:13:20;21.40;98.60
11764;DHT22;5939;56.522;14.950;2023-06-24T08:15:45;21.50;98.30
11764;DHT22;5939;56.522;14.950;2023-06-24T08:18:11;21.60;98.50
11764;DHT22;5939;56.522;14.950;2023-06-24T08:20:37;21.70;98.60
11764;DHT22;5939;56.522;14.950;2023-06-24T08:23:03;21.80;98.80
11764;DHT22;5939;56.522;14.950;2023-06-24T08:25:28;21.90;98.60
11764;DHT22;5939;56.522;14.950;2023-06-24T08:27:54;22.00;98.60
11764;DHT22;5939;56.522;14.950;2023-06-24T08:30:19;22.10;98.50
11764;DHT22;5939;56.522;14.950;2023-06-24T08:32:45;22.20;98.40
11764;DHT22;5939;56.522;14.950;2023-06-24T08:35:11;22.20;98.30
11764;DHT22;5939;56.522;14.950;2023-06-24T08:37:37;22.30;98.30
11764;DHT22;5939;56.522;14.950;2023-06-24T08:40:03;22.40;98.30
11764;DHT22;5939;56.522;14.950;2023-06-24T08:42:32;22.40;98.30
11764;DHT22;5939;56.522;14.950;2023-06-24T08:44:58;22.50;98.20
11764;DHT22;5939;56.522;14.950;2023-06-24T08:47:24;22.60;98.20
11764;DHT22;5939;56.522;14.950;2023-06-24T08:49:53;22.60;98.10
11764;DHT22;5939;56.522;14.950;2023-06-24T08:52:25;22.60;98.10
11764;DHT22;5939;56.522;14.950;2023-06-24T08:54:52;22.70;98.00
11764;DHT22;5939;56.522;14.950;2023-06-24T08:57:20;22.80;98.00
11764;DHT22;5939;56.522;14.950;2023-06-24T08:59:46;22.80;98.10
11764;DHT22;5939;56.522;14.950;2023-06-24T09:02:11;22.80;98.00
11764;DHT22;5939;56.522;14.950;2023-06-24T09:04:40;22.90;98.00
11764;DHT22;5939;56.522;14.950;2023-06-24T09:07:05;22.90;98.00
11764;DHT22;5939;56.522;14.950;2023-06-24T09:09:31;23.00;98.10
11764;DHT22;5939;56.522;14.950;2023-06-24T09:12:00;23.00;98.10
11764;DHT22;5939;56.522;14.950;2023-06-24T09:14:29;23.10;98.00
11764;DHT22;5939;56.522;14.950;2023-06-24T09:17:03;23.20;98.00
11764;DHT22;5939;56.522;14.950;2023-06-24T09:19:29;23.20;98.00
11764;DHT22;5939;56.522;14.950;2023-06-24T09:22:06;23.30;98.10
11764;DHT22;5939;56.522;14.950;2023-06-24T09:24:35;23.40;98.10
11764;DHT22;5939;56.522;14.950;2023-06-24T09:27:02;23.40;98.10
11764;DHT22;5939;56.522;14.950;2023-06-24T09:29:33;23.50;98.10
11764;DHT22;5939;56.522;14.950;2023-06-24T09:31:58;23.60;98.20
11764;DHT22;5939;56.522;14.950;2023-06-24T09:34:26;23.60;98.20
11764;DHT22;5939;56.522;14.950;2023-06-24T09:36:56;23.70;98.20
11764;DHT22;5939;56.522;14.950;2023-06-24T09:39:22;23.80;98.30
11764;DHT22;5939;56.522;14.950;2023-06-24T09:41:54;23.90;98.30
11764;DHT22;5939;56.522;14.950;2023-06-24T09:44:20;23.90;98.30
11764;DHT22;5939;56.522;14.950;2023-06-24T09:46:46;24.10;98.40
11764;DHT22;5939;56.522;14.950;2023-06-24T09:49:12;24.10;98.40
11764;DHT22;5939;56.522;14.950;2023-06-24T09:51:40;24.20;98.40
11764;DHT22;5939;56.522;14.950;2023-06-24T09:54:06;24.30;98.30
11764;DHT22;5939;56.522;14.950;2023-06-24T09:56:35;24.50;98.40
11764;DHT22;5939;56.522;14.950;2023-06-24T09:59:04;24.60;98.30
11764;DHT22;5939;56.522;14.950;2023-06-24T10:01:32;24.60;98.30
11764;DHT22;5939;56.522;14.950;2023-06-24T10:03:58;24.70;98.20
11764;DHT22;5939;56.522;14.950;2023-06-24T10:06:26;24.80;98.20
11764;DHT22;5939;56.522;14.950;2023-06-24T10:08:52;24.90;98.20
11764;DHT22;5939;56.522;14.950;2023-06-24T10:11:18;25.00;98.10
11764;DHT22;5939;56.522;14.950;2023-06-24T10:13:44;25.00;98.00
11764;DHT22;5939;56.522;14.950;2023-06-24T10:16:09;25.10;97.90
11764;DHT22;5939;56.522;14.950;2023-06-24T10:18:39;25.20;98.00
11764;DHT22;5939;56.522;14.950;2023-06-24T10:21:07;25.30;97.90
11764;DHT22;5939;56.522;14.950;2023-06-24T10:26:28;25.50;97.90
11764;DHT22;5939;56.522;14.950;2023-06-24T10:37:02;25.80;97.60
11764;DHT22;5939;56.522;14.950;2023-06-24T10:44:49;26.00;97.40
11764;DHT22;5939;56.522;14.950;2023-06-24T10:47:15;26.00;97.30
11764;DHT22;5939;56.522;14.950;2023-06-24T10:49:40;26.10;97.40
11764;DHT22;5939;56.522;14.950;2023-06-24T10:52:10;26.20;97.30
11764;DHT22;5939;56.522;14.950;2023-06-24T10:54:37;26.20;97.20
11764;DHT22;5939;56.522;14.950;2023-06-24T10:57:07;26.30;97.20
11764;DHT22;5939;56.522;14.950;2023-06-24T10:59:43;26.40;97.20
11764;DHT22;5939;56.522;14.950;2023-06-24T11:02:15;26.40;97.20
11764;DHT22;5939;56.522;14.950;2023-06-24T11:07:08;26.60;97.20
11764;DHT22;5939;56.522;14.950;2023-06-24T11:09:33;26.70;97.20
11764;DHT22;5939;56.522;14.950;2023-06-24T11:12:02;26.70;97.10
11764;DHT22;5939;56.522;14.950;2023-06-24T11:14:28;26.80;97.00
11764;DHT22;5939;56.522;14.950;2023-06-24T11:16:54;26.90;97.00
11764;DHT22;5939;56.522;14.950;2023-06-24T11:19:19;26.90;96.90
11764;DHT22;5939;56.522;14.950;2023-06-24T11:21:45;27.00;96.90
11764;DHT22;5939;56.522;14.950;2023-06-24T11:24:11;27.00;96.60
11764;DHT22;5939;56.522;14.950;2023-06-24T11:26:37;27.10;96.70
11764;DHT22;5939;56.522;14.950;2023-06-24T11:29:12;27.10;96.70
11764;DHT22;5939;56.522;14.950;2023-06-24T11:31:38;27.20;96.70
11764;DHT22;5939;56.522;14.950;2023-06-24T11:34:04;27.30;96.70
11764;DHT22;5939;56.522;14.950;2023-06-24T11:36:30;27.30;96.30
11764;DHT22;5939;56.522;14.950;2023-06-24T11:38:55;27.30;96.30
11764;DHT22;5939;56.522;14.950;2023-06-24T11:41:21;27.40;96.40
11764;DHT22;5939;56.522;14.950;2023-06-24T11:43:48;27.40;96.30
11764;DHT22;5939;56.522;14.950;2023-06-24T11:46:30;27.40;96.20
11764;DHT22;5939;56.522;14.950;2023-06-24T11:49:05;27.40;95.90
11764;DHT22;5939;56.522;14.950;2023-06-24T11:51:32;27.40;95.80
11764;DHT22;5939;56.522;14.950;2023-06-24T11:54:04;27.40;95.80
11764;DHT22;5939;56.522;14.950;2023-06-24T11:56:54;27.40;95.50
11764;DHT22;5939;56.522;14.950;2023-06-24T11:59:21;27.40;95.50
11764;DHT22;5939;56.522;14.950;2023-06-24T12:01:56;27.40;95.40
11764;DHT22;5939;56.522;14.950;2023-06-24T12:04:32;27.40;95.50
11764;DHT22;5939;56.522;14.950;2023-06-24T12:06:59;27.50;95.60
11764;DHT22;5939;56.522;14.950;2023-06-24T12:09:25;27.50;95.40
11764;DHT22;5939;56.522;14.950;2023-06-24T12:11:52;27.50;95.40
11764;DHT22;5939;56.522;14.950;2023-06-24T12:14:18;27.50;95.40
11764;DHT22;5939;56.522;14.950;2023-06-24T12:16:44;27.50;95.40
11764;DHT22;5939;56.522;14.950;2023-06-24T12:19:10;27.50;95.40
11764;DHT22;5939;56.522;14.950;2023-06-24T12:21:37;27.50;95.40
11764;DHT22;5939;56.522;14.950;2023-06-24T12:24:04;27.50;95.50
11764;DHT22;5939;56.522;14.950;2023-06-24T12:26:30;27.50;95.40
11764;DHT22;5939;56.522;14.950;2023-06-24T12:28:56;27.50;95.30
11764;DHT22;5939;56.522;14.950;2023-06-24T12:31:23;27.60;95.40
11764;DHT22;5939;56.522;14.950;2023-06-24T12:33:49;27.60;95.40
11764;DHT22;5939;56.522;14.950;2023-06-24T12:36:15;27.60;95.40
11764;DHT22;5939;56.522;14.950;2023-06-24T12:38:41;27.60;95.30
11764;DHT22;5939;56.522;14.950;2023-06-24T12:41:06;27.70;95.40
11764;DHT22;5939;56.522;14.950;2023-06-24T12:43:32;27.70;95.30
11764;DHT22;5939;56.522;14.950;2023-06-24T12:45:58;27.70;95.30
11764;DHT22;5939;56.522;14.950;2023-06-24T12:48:24;27.70;95.30
11764;DHT22;5939;56.522;14.950;2023-06-24T12:50:50;27.70;95.30
11764;DHT22;5939;56.522;14.950;2023-06-24T12:53:19;27.70;95.30
11764;DHT22;5939;56.522;14.950;2023-06-24T12:55:44;27.80;95.40
11764;DHT22;5939;56.522;14.950;2023-06-24T12:58:10;27.80;95.30
11764;DHT22;5939;56.522;14.950;2023-06-24T13:00:36;27.80;95.30
11764;DHT22;5939;56.522;14.950;2023-06-24T13:03:02;27.80;95.30
11764;DHT22;5939;56.522;14.950;2023-06-24T13:05:28;27.80;95.30
11764;DHT22;5939;56.522;14.950;2023-06-24T13:07:53;27.80;95.30
11764;DHT22;5939;56.522;14.950;2023-06-24T13:10:20;27.80;95.20
11764;DHT22;5939;56.522;14.950;2023-06-24T13:12:46;27.80;95.10
11764;DHT22;5939;56.522;14.950;2023-06-24T13:15:12;27.80;95.10
11764;DHT22;5939;56.522;14.950;2023-06-24T13:17:39;27.80;95.00
11764;DHT22;5939;56.522;14.950;2023-06-24T13:20:05;27.80;95.00
11764;DHT22;5939;56.522;14.950;2023-06-24T13:22:30;27.80;95.00
11764;DHT22;5939;56.522;14.950;2023-06-24T13:24:57;27.80;95.00
11764;DHT22;5939;56.522;14.950;2023-06-24T13:27:22;27.70;95.00
11764;DHT22;5939;56.522;14.950;2023-06-24T13:29:48;27.70;95.00
11764;DHT22;5939;56.522;14.950;2023-06-24T13:32:14;27.70;95.50
11764;DHT22;5939;56.522;14.950;2023-06-24T13:34:39;27.70;95.10
11764;DHT22;5939;56.522;14.950;2023-06-24T13:37:05;27.70;95.20
11764;DHT22;5939;56.522;14.950;2023-06-24T13:39:31;27.60;95.20
11764;DHT22;5939;56.522;14.950;2023-06-24T13:41:57;27.60;95.20
11764;DHT22;5939;56.522;14.950;2023-06-24T13:44:23;27.60;95.20
11764;DHT22;5939;56.522;14.950;2023-06-24T13:46:49;27.60;95.20
11764;DHT22;5939;56.522;14.950;2023-06-24T13:49:16;27.50;95.10
11764;DHT22;5939;56.522;14.950;2023-06-24T13:51:42;27.50;95.20
11764;DHT22;5939;56.522;14.950;2023-06-24T13:54:07;27.50;95.30
11764;DHT22;5939;56.522;14.950;2023-06-24T13:56:33;27.50;95.10
11764;DHT22;5939;56.522;14.950;2023-06-24T13:58:59;27.40;95.10
11764;DHT22;5939;56.522;14.950;2023-06-24T14:01:25;27.40;95.20
11764;DHT22;5939;56.522;14.950;2023-06-24T14:03:55;27.40;95.20
11764;DHT22;5939;56.522;14.950;2023-06-24T14:06:22;27.40;95.20
11764;DHT22;5939;56.522;14.950;2023-06-24T14:08:49;27.40;95.30
11764;DHT22;5939;56.522;14.950;2023-06-24T14:11:15;27.30;95.20
11764;DHT22;5939;56.522;14.950;2023-06-24T14:13:41;27.30;95.20
11764;DHT22;5939;56.522;14.950;2023-06-24T14:16:08;27.30;95.20
11764;DHT22;5939;56.522;14.950;2023-06-24T14:18:34;27.30;95.20
11764;DHT22;5939;56.522;14.950;2023-06-24T14:21:01;27.20;95.20
11764;DHT22;5939;56.522;14.950;2023-06-24T14:23:29;27.20;95.20
11764;DHT22;5939;56.522;14.950;2023-06-24T14:25:57;27.20;95.20
11764;DHT22;5939;56.522;14.950;2023-06-24T14:28:23;27.20;95.10
11764;DHT22;5939;56.522;14.950;2023-06-24T14:30:49;27.20;95.10
11764;DHT22;5939;56.522;14.950;2023-06-24T14:33:14;27.10;95.10
11764;DHT22;5939;56.522;14.950;2023-06-24T14:35:41;27.10;95.20
11764;DHT22;5939;56.522;14.950;2023-06-24T14:38:07;27.10;95.20
11764;DHT22;5939;56.522;14.950;2023-06-24T14:40:33;27.10;95.10
11764;DHT22;5939;56.522;14.950;2023-06-24T14:42:59;27.00;95.10
11764;DHT22;5939;56.522;14.950;2023-06-24T14:45:25;27.00;95.10
11764;DHT22;5939;56.522;14.950;2023-06-24T14:47:51;27.00;95.10
11764;DHT22;5939;56.522;14.950;2023-06-24T14:50:16;26.90;95.10
11764;DHT22;5939;56.522;14.950;2023-06-24T14:52:42;26.90;95.10
11764;DHT22;5939;56.522;14.950;2023-06-24T14:55:08;26.90;95.10
11764;DHT22;5939;56.522;14.950;2023-06-24T14:57:35;26.90;95.20
11764;DHT22;5939;56.522;14.950;2023-06-24T15:00:02;26.80;95.10
11764;DHT22;5939;56.522;14.950;2023-06-24T15:02:27;26.80;95.20
11764;DHT22;5939;56.522;14.950;2023-06-24T15:04:53;26.80;95.20
11764;DHT22;5939;56.522;14.950;2023-06-24T15:07:19;26.70;95.20
11764;DHT22;5939;56.522;14.950;2023-06-24T15:09:44;26.70;95.30
11764;DHT22;5939;56.522;14.950;2023-06-24T15:12:10;26.70;95.30
11764;DHT22;5939;56.522;14.950;2023-06-24T15:14:36;26.60;95.30
11764;DHT22;5939;56.522;14.950;2023-06-24T15:17:02;26.60;95.30
11764;DHT22;5939;56.522;14.950;2023-06-24T15:19:28;26.60;95.30
11764;DHT22;5939;56.522;14.950;2023-06-24T15:21:54;26.50;95.30
11764;DHT22;5939;56.522;14.950;2023-06-24T15:24:19;26.50;95.30
11764;DHT22;5939;56.522;14.950;2023-06-24T15:26:45;26.40;95.30
11764;DHT22;5939;56.522;14.950;2023-06-24T15:29:10;26.40;95.20
11764;DHT22;5939;56.522;14.950;2023-06-24T15:31:36;26.40;95.30
11764;DHT22;5939;56.522;14.950;2023-06-24T15:34:02;26.30;95.20
11764;DHT22;5939;56.522;14.950;2023-06-24T15:36:28;26.30;95.20
11764;DHT22;5939;56.522;14.950;2023-06-24T15:38:55;26.30;95.20
11764;DHT22;5939;56.522;14.950;2023-06-24T15:41:21;26.20;95.20
11764;DHT22;5939;56.522;14.950;2023-06-24T15:43:46;26.20;95.20
11764;DHT22;5939;56.522;14.950;2023-06-24T15:46:12;26.20;95.30
11764;DHT22;5939;56.522;14.950;2023-06-24T15:48:38;26.20;95.30
11764;DHT22;5939;56.522;14.950;2023-06-24T15:51:04;26.10;95.20
11764;DHT22;5939;56.522;14.950;2023-06-24T15:53:29;26.00;95.20
11764;DHT22;5939;56.522;14.950;2023-06-24T15:55:55;26.00;95.30
11764;DHT22;5939;56.522;14.950;2023-06-24T15:58:21;26.00;95.30
11764;DHT22;5939;56.522;14.950;2023-06-24T16:00:47;26.00;95.30